Time;durP1;ratioP1;P1;durP2;ratioP2;P2;SDS_P1;SDS_P2;PMS_P1;PMS_P2;Temp;Humidity;BMP_temperature;BMP_pressure;BME280_temperature;BME280_humidity;BME280_pressure;Samples;Min_cycle;Max_cycle;Signal;HPM_P1;HPM_P2
2024/03/07 00:01:50;;;;;;;;;;;;;;;8.06;nan;102169.09;4162868;28;19925;-70
2024/03/07 00:03:55;;;;;;;;;;;;;;;8.05;nan;102170.06;4163605;28;19925;-70
2024/03/07 00:06:00;;;;;;;;;;;;;;;8.06;nan;102171.78;4164419;28;19935;-69
2024/03/07 00:08:03;;;;;;;;;;;;;;;8.04;nan;102174.59;4164251;28;19935;-69
2024/03/07 00:10:06;;;;;;;;;;;;;;;8.04;nan;102173.72;4163574;28;19925;-69
2024/03/07 00:12:09;;;;;;;;;;;;;;;8.04;nan;102171.03;4161800;28;19955;-69
2024/03/07 00:14:10;;;;;;;;;;;;;;;8.04;nan;102176.41;4163751;28;20232;-70
2024/03/07 00:16:12;;;;;;;;;;;;;;;8.04;nan;102166.50;4164247;28;19925;-70
2024/03/07 00:18:18;;;;;;;;;;;;;;;8.04;nan;102171.03;4146803;28;20449;-70
2024/03/07 00:20:20;;;;;;;;;;;;;;;8.05;nan;102170.06;4164324;28;19935;-70
2024/03/07 00:22:26;;;;;;;;;;;;;;;8.04;nan;102173.72;4164273;28;19929;-69
2024/03/07 00:24:28;;;;;;;;;;;;;;;8.03;nan;102172.03;4162981;28;19936;-70
2024/03/07 00:26:31;;;;;;;;;;;;;;;8.03;nan;102174.72;4164053;28;19929;-70
2024/03/07 00:28:38;;;;;;;;;;;;;;;8.03;nan;102180.09;4164252;28;19948;-70
2024/03/07 00:30:42;;;;;;;;;;;;;;;8.02;nan;102175.69;4162043;28;19925;-70
2024/03/07 00:32:45;;;;;;;;;;;;;;;8.01;nan;102172.16;4163800;28;19936;-70
2024/03/07 00:34:47;;;;;;;;;;;;;;;8.01;nan;102169.47;4163606;28;20310;-70
2024/03/07 00:36:51;;;;;;;;;;;;;;;8.00;nan;102170.44;4164255;28;20413;-70
2024/03/07 00:38:55;;;;;;;;;;;;;;;8.01;nan;102171.28;4145841;28;19949;-70
2024/03/07 00:40:57;;;;;;;;;;;;;;;8.00;nan;102174.97;4162901;28;19925;-70
2024/03/07 00:42:59;;;;;;;;;;;;;;;8.01;nan;102171.28;4163579;28;19947;-70
2024/03/07 00:45:03;;;;;;;;;;;;;;;7.99;nan;102170.56;4164088;28;19929;-70
2024/03/07 00:47:05;;;;;;;;;;;;;;;7.99;nan;102176.78;4163425;28;19939;-70
2024/03/07 00:49:07;;;;;;;;;;;;;;;7.98;nan;102171.53;4162416;28;19929;-70
2024/03/07 00:51:09;;;;;;;;;;;;;;;7.99;nan;102178.63;4162420;28;19925;-70
2024/03/07 00:53:12;;;;;;;;;;;;;;;7.97;nan;102170.69;4162241;28;19939;-70
2024/03/07 00:55:15;;;;;;;;;;;;;;;7.97;nan;102162.59;4162597;28;19929;-70
2024/03/07 00:57:17;;;;;;;;;;;;;;;7.96;nan;102165.41;4160800;28;19935;-70
2024/03/07 00:59:19;;;;;;;;;;;;;;;7.96;nan;102173.50;4161883;28;20302;-70
2024/03/07 01:01:21;;;;;;;;;;;;;;;7.94;nan;102171.78;4160454;28;19929;-70
2024/03/07 01:03:24;;;;;;;;;;;;;;;7.94;nan;102168.22;4162403;28;20311;-70
2024/03/07 01:05:26;;;;;;;;;;;;;;;7.95;nan;102167.25;4162101;28;19933;-70
2024/03/07 01:07:28;;;;;;;;;;;;;;;7.94;nan;102162.84;4162614;28;19929;-70
2024/03/07 01:09:30;;;;;;;;;;;;;;;7.95;nan;102159.19;4161631;28;20389;-70
2024/03/07 01:11:34;;;;;;;;;;;;;;;7.94;nan;102157.47;4161044;28;19925;-70
2024/03/07 01:13:36;;;;;;;;;;;;;;;7.96;nan;102154.66;4161145;28;19932;-70
2024/03/07 01:15:38;;;;;;;;;;;;;;;7.90;nan;102153.34;4162024;28;19931;-70
2024/03/07 01:17:40;;;;;;;;;;;;;;;7.94;nan;102154.78;4162206;28;20394;-70
2024/03/07 01:19:42;;;;;;;;;;;;;;;7.94;nan;102161.00;4162065;28;19929;-70
2024/03/07 01:21:44;;;;;;;;;;;;;;;7.93;nan;102159.31;4161984;28;19935;-70
2024/03/07 01:23:46;;;;;;;;;;;;;;;7.93;nan;102159.31;4162426;28;19929;-70
2024/03/07 01:25:48;;;;;;;;;;;;;;;7.92;nan;102162.97;4143832;28;19936;-70
2024/03/07 01:27:52;;;;;;;;;;;;;;;7.90;nan;102159.56;4162090;28;20295;-70
2024/03/07 01:29:53;;;;;;;;;;;;;;;7.89;nan;102163.22;4161832;28;19929;-70
2024/03/07 01:31:55;;;;;;;;;;;;;;;7.90;nan;102164.09;4144832;28;19940;-70
2024/03/07 01:33:57;;;;;;;;;;;;;;;7.90;nan;102164.09;4161406;28;19931;-70
2024/03/07 01:35:58;;;;;;;;;;;;;;;7.88;nan;102161.53;4162533;28;20286;-70
2024/03/07 01:38:00;;;;;;;;;;;;;;;7.88;nan;102158.84;4162126;28;19925;-70
2024/03/07 01:40:03;;;;;;;;;;;;;;;7.88;nan;102164.22;4161359;28;19932;-70
2024/03/07 01:42:05;;;;;;;;;;;;;;;7.88;nan;102172.28;4161472;28;19929;-70
2024/03/07 01:44:08;;;;;;;;;;;;;;;7.87;nan;102165.19;4161956;28;20391;-70
2024/03/07 01:46:11;;;;;;;;;;;;;;;7.87;nan;102167.03;4144482;28;19933;-70
2024/03/07 01:48:13;;;;;;;;;;;;;;;7.86;nan;102166.16;4099329;28;1784038;-70
2024/03/07 01:50:15;;;;;;;;;;;;;;;7.87;nan;102167.03;4162167;28;20295;-69
2024/03/07 01:52:17;;;;;;;;;;;;;;;7.84;nan;102165.44;4162787;28;20371;-69
2024/03/07 01:54:20;;;;;;;;;;;;;;;7.84;nan;102167.28;4162075;28;20425;-69
2024/03/07 01:56:22;;;;;;;;;;;;;;;7.84;nan;102167.28;4162008;28;19945;-69
2024/03/07 01:58:24;;;;;;;;;;;;;;;7.82;nan;102164.72;4162974;28;19925;-69
2024/03/07 02:00:28;;;;;;;;;;;;;;;7.81;nan;102163.00;4163646;28;19935;-69
2024/03/07 02:02:30;;;;;;;;;;;;;;;7.80;nan;102163.13;4162426;28;19925;-69
2024/03/07 02:04:32;;;;;;;;;;;;;;;7.78;nan;102157.88;4162337;28;19929;-69
2024/03/07 02:06:34;;;;;;;;;;;;;;;7.78;nan;102162.41;4162028;28;19925;-69
2024/03/07 02:08:36;;;;;;;;;;;;;;;7.76;nan;102159.84;4161441;28;20310;-69
2024/03/07 02:10:39;;;;;;;;;;;;;;;7.73;nan;102152.84;4160773;28;20325;-69
2024/03/07 02:12:41;;;;;;;;;;;;;;;7.72;nan;102153.81;4144042;28;19931;-69
2024/03/07 02:14:43;;;;;;;;;;;;;;;7.71;nan;102151.25;4161954;28;19939;-69
2024/03/07 02:16:46;;;;;;;;;;;;;;;7.69;nan;102148.69;4161353;28;19929;-69
2024/03/07 02:18:49;;;;;;;;;;;;;;;7.66;nan;102151.63;4161710;28;19999;-69
2024/03/07 02:20:52;;;;;;;;;;;;;;;7.67;nan;102152.50;4161836;28;19935;-69
2024/03/07 02:22:54;;;;;;;;;;;;;;;7.66;nan;102146.25;4161853;28;19925;-69
2024/03/07 02:24:56;;;;;;;;;;;;;;;7.64;nan;102150.06;4162477;28;19939;-69
2024/03/07 02:26:59;;;;;;;;;;;;;;;7.62;nan;102149.31;4161510;28;20305;-69
2024/03/07 02:29:02;;;;;;;;;;;;;;;7.59;nan;102150.44;4161414;28;19926;-69
2024/03/07 02:31:04;;;;;;;;;;;;;;;7.57;nan;102149.72;4161244;28;19925;-69
2024/03/07 02:33:07;;;;;;;;;;;;;;;7.53;nan;102146.38;4160661;28;20412;-69
2024/03/07 02:35:09;;;;;;;;;;;;;;;7.52;nan;102143.81;4161963;28;20409;-69
2024/03/07 02:37:13;;;;;;;;;;;;;;;7.51;nan;102140.28;4162141;28;19929;-69
2024/03/07 02:39:16;;;;;;;;;;;;;;;7.50;nan;102145.78;4161459;28;19933;-69
2024/03/07 02:41:18;;;;;;;;;;;;;;;7.49;nan;102141.38;4161123;28;19935;-69
2024/03/07 02:43:21;;;;;;;;;;;;;;;7.47;nan;102130.75;4161110;28;19935;-69
2024/03/07 02:45:23;;;;;;;;;;;;;;;7.45;nan;102132.72;4161702;28;20707;-69
2024/03/07 02:47:25;;;;;;;;;;;;;;;7.44;nan;102135.53;4161221;28;19931;-69
2024/03/07 02:49:26;;;;;;;;;;;;;;;7.42;nan;102135.63;4161146;28;19929;-69
2024/03/07 02:51:29;;;;;;;;;;;;;;;7.40;nan;102137.59;4161497;28;20390;-69
2024/03/07 02:53:33;;;;;;;;;;;;;;;7.38;nan;102132.34;4162187;28;19935;-69
2024/03/07 02:55:35;;;;;;;;;;;;;;;7.36;nan;102136.13;4162406;28;20287;-69
2024/03/07 02:57:36;;;;;;;;;;;;;;;7.34;nan;102138.94;4162275;28;19935;-69
2024/03/07 02:59:38;;;;;;;;;;;;;;;7.31;nan;102132.97;4161279;28;20394;-69
2024/03/07 03:01:42;;;;;;;;;;;;;;;7.30;nan;102134.78;4161738;28;19935;-69
2024/03/07 03:03:44;;;;;;;;;;;;;;;7.29;nan;102137.56;4161721;28;20586;-69
2024/03/07 03:05:46;;;;;;;;;;;;;;;7.26;nan;102136.00;4161059;28;19936;-69
2024/03/07 03:07:53;;;;;;;;;;;;;;;7.24;nan;102140.66;4162124;28;19929;-69
2024/03/07 03:09:57;;;;;;;;;;;;;;;7.22;nan;102142.59;4161041;28;19943;-69
2024/03/07 03:11:59;;;;;;;;;;;;;;;7.15;nan;102136.84;4160791;28;19925;-69
2024/03/07 03:14:01;;;;;;;;;;;;;;;7.18;nan;102141.13;4160889;28;19925;-69
2024/03/07 03:16:06;;;;;;;;;;;;;;;7.15;nan;102142.22;4161103;28;19929;-69
2024/03/07 03:18:09;;;;;;;;;;;;;;;7.13;nan;102146.00;4160413;28;20410;-69
2024/03/07 03:20:24;;;;;;;;;;;;;;;7.09;nan;102147.22;4143731;28;20421;-69
2024/03/07 03:22:26;;;;;;;;;;;;;;;7.08;nan;102148.19;4164529;28;19956;-69
2024/03/07 03:24:29;;;;;;;;;;;;;;;7.05;nan;102146.59;4164781;28;19929;-69
2024/03/07 03:26:31;;;;;;;;;;;;;;;7.03;nan;102153.91;4164729;28;19935;-69
2024/03/07 03:28:33;;;;;;;;;;;;;;;7.02;nan;102149.50;4165181;28;19929;-69
2024/03/07 03:30:36;;;;;;;;;;;;;;;6.97;nan;102149.88;4164664;28;19929;-69
2024/03/07 03:32:38;;;;;;;;;;;;;;;6.96;nan;102155.34;4164393;28;19932;-69
2024/03/07 03:34:42;;;;;;;;;;;;;;;6.94;nan;102160.84;4164738;28;19936;-69
2024/03/07 03:36:44;;;;;;;;;;;;;;;6.92;nan;102156.59;4164591;28;19925;-69
2024/03/07 03:38:46;;;;;;;;;;;;;;;6.90;nan;102158.56;4164793;28;20306;-69
2024/03/07 03:40:49;;;;;;;;;;;;;;;6.87;nan;102165.00;4163601;28;19929;-69
2024/03/07 03:42:52;;;;;;;;;;;;;;;6.84;nan;102165.22;4164004;28;19931;-69
2024/03/07 03:44:54;;;;;;;;;;;;;;;6.82;nan;102164.50;4164551;28;19929;-69
2024/03/07 03:46:55;;;;;;;;;;;;;;;6.79;nan;102167.44;4164827;28;19925;-69
2024/03/07 03:48:58;;;;;;;;;;;;;;;6.76;nan;102164.97;4164258;28;20425;-69
2024/03/07 03:51:00;;;;;;;;;;;;;;;6.74;nan;102166.91;4164223;28;19925;-69
2024/03/07 03:53:03;;;;;;;;;;;;;;;6.71;nan;102162.63;4164145;28;20322;-69
2024/03/07 03:55:06;;;;;;;;;;;;;;;6.69;nan;102169.94;4163927;28;19929;-69
2024/03/07 03:57:08;;;;;;;;;;;;;;;6.67;nan;102169.19;4164114;28;20374;-69
2024/03/07 03:59:12;;;;;;;;;;;;;;;6.64;nan;102162.22;4164293;28;19925;-69
2024/03/07 04:01:14;;;;;;;;;;;;;;;6.63;nan;102167.72;4163731;28;19932;-70
2024/03/07 04:03:16;;;;;;;;;;;;;;;6.60;nan;102171.50;4164514;28;19929;-69
2024/03/07 04:05:19;;;;;;;;;;;;;;;6.57;nan;102174.41;4146802;28;19929;-69
2024/03/07 04:07:22;;;;;;;;;;;;;;;6.55;nan;102176.38;4164519;28;19943;-69
2024/03/07 04:09:24;;;;;;;;;;;;;;;6.53;nan;102175.59;4163416;28;19979;-70
2024/03/07 04:11:28;;;;;;;;;;;;;;;6.50;nan;102181.22;4164035;28;20318;-69
2024/03/07 04:13:30;;;;;;;;;;;;;;;6.47;nan;102178.75;4162477;28;19925;-70
2024/03/07 04:15:33;;;;;;;;;;;;;;;6.44;nan;102179.84;4163957;28;19925;-69
2024/03/07 04:17:36;;;;;;;;;;;;;;;6.41;nan;102172.03;4163907;28;20391;-69
2024/03/07 04:19:38;;;;;;;;;;;;;;;6.39;nan;102168.59;4162800;28;19935;-69
2024/03/07 04:21:41;;;;;;;;;;;;;;;6.36;nan;102176.88;4162896;28;19929;-69
2024/03/07 04:23:46;;;;;;;;;;;;;;;6.34;nan;102173.44;4163888;28;19932;-69
2024/03/07 04:25:48;;;;;;;;;;;;;;;6.32;nan;102170.88;4164217;28;20298;-69
2024/03/07 04:27:49;;;;;;;;;;;;;;;6.30;nan;102170.16;4164002;28;20027;-69
2024/03/07 04:29:51;;;;;;;;;;;;;;;6.29;nan;102175.63;4163144;28;19929;-69
2024/03/07 04:31:55;;;;;;;;;;;;;;;6.26;nan;102182.06;4145901;28;20122;-69
2024/03/07 04:33:57;;;;;;;;;;;;;;;6.25;nan;102179.50;4163135;28;19925;-69
2024/03/07 04:36:00;;;;;;;;;;;;;;;6.22;nan;102179.72;4163776;28;20405;-69
2024/03/07 04:38:03;;;;;;;;;;;;;;;6.19;nan;102174.59;4163724;28;19925;-69
2024/03/07 04:40:11;;;;;;;;;;;;;;;6.15;nan;102176.66;4163008;28;19935;-69
2024/03/07 04:42:16;;;;;;;;;;;;;;;6.12;nan;102168.81;4163701;28;20293;-69
2024/03/07 04:44:18;;;;;;;;;;;;;;;6.09;nan;102182.47;4163395;28;20318;-69
2024/03/07 04:46:20;;;;;;;;;;;;;;;6.07;nan;102179.03;4163541;28;19925;-69
2024/03/07 04:48:23;;;;;;;;;;;;;;;6.05;nan;102175.59;4163791;28;19929;-69
2024/03/07 04:50:28;;;;;;;;;;;;;;;6.04;nan;102187.31;4163427;28;19929;-69
2024/03/07 04:52:30;;;;;;;;;;;;;;;6.02;nan;102179.38;4162395;28;19956;-69
2024/03/07 04:54:34;;;;;;;;;;;;;;;5.97;nan;102178.81;4162082;28;19925;-70
2024/03/07 04:56:36;;;;;;;;;;;;;;;5.96;nan;102174.41;4162128;28;20294;-69
2024/03/07 04:58:38;;;;;;;;;;;;;;;5.94;nan;102184.38;4163059;28;19929;-69
2024/03/07 05:00:40;;;;;;;;;;;;;;;5.92;nan;102181.84;4162744;28;19933;-69
2024/03/07 05:02:43;;;;;;;;;;;;;;;5.89;nan;102187.44;4162405;28;19925;-69
2024/03/07 05:04:49;;;;;;;;;;;;;;;5.86;nan;102182.28;4161696;28;19925;-69
2024/03/07 05:06:51;;;;;;;;;;;;;;;5.84;nan;102184.19;4146004;28;19925;-69
2024/03/07 05:08:53;;;;;;;;;;;;;;;5.82;nan;102185.28;4162535;28;19925;-69
2024/03/07 05:10:55;;;;;;;;;;;;;;;5.80;nan;102185.41;4162813;28;20300;-70
2024/03/07 05:12:58;;;;;;;;;;;;;;;5.78;nan;102190.88;4162682;28;19947;-70
2024/03/07 05:15:00;;;;;;;;;;;;;;;5.75;nan;102190.22;4162868;28;19934;-69
2024/03/07 05:17:05;;;;;;;;;;;;;;;5.72;nan;102195.78;4161451;28;19933;-70
2024/03/07 05:19:08;;;;;;;;;;;;;;;5.70;nan;102195.06;4161961;28;19929;-70
2024/03/07 05:23:27;;;;;;;;;;;;;;;5.66;nan;102204.28;4161823;28;20302;-70
2024/03/07 05:25:28;;;;;;;;;;;;;;;5.64;nan;102198.19;4162358;28;19925;-70
2024/03/07 05:27:33;;;;;;;;;;;;;;;5.62;nan;102198.28;4163268;28;19936;-70
2024/03/07 05:29:36;;;;;;;;;;;;;;;5.62;nan;102203.66;4162595;28;19929;-70
2024/03/07 05:31:37;;;;;;;;;;;;;;;5.60;nan;102200.22;4161736;28;19929;-70
2024/03/07 05:33:40;;;;;;;;;;;;;;;5.59;nan;102196.69;4161122;28;19940;-70
2024/03/07 05:35:43;;;;;;;;;;;;;;;5.58;nan;102200.34;4161935;28;19936;-70
2024/03/07 05:37:47;;;;;;;;;;;;;;;5.57;nan;102205.81;4163035;28;20248;-70
2024/03/07 05:39:48;;;;;;;;;;;;;;;5.55;nan;102213.09;4162482;28;19939;-70
2024/03/07 05:41:50;;;;;;;;;;;;;;;5.52;nan;102207.97;4162208;28;19935;-70
2024/03/07 05:43:51;;;;;;;;;;;;;;;5.50;nan;102218.78;4162245;28;20297;-70
2024/03/07 05:45:54;;;;;;;;;;;;;;;5.49;nan;102216.22;4162718;28;19932;-70
2024/03/07 05:47:56;;;;;;;;;;;;;;;5.48;nan;102218.00;4162320;28;19935;-70
2024/03/07 05:49:58;;;;;;;;;;;;;;;5.48;nan;102219.84;4161974;28;20274;-70
2024/03/07 05:52:00;;;;;;;;;;;;;;;5.46;nan;102216.44;4161450;28;19939;-69
2024/03/07 05:54:06;;;;;;;;;;;;;;;5.43;nan;102219.31;4162157;28;19935;-69
2024/03/07 05:56:08;;;;;;;;;;;;;;;5.41;nan;102216.75;4162114;28;19929;-68
2024/03/07 05:58:10;;;;;;;;;;;;;;;5.41;nan;102216.75;4162122;28;19951;-69
2024/03/07 06:00:15;;;;;;;;;;;;;;;5.40;nan;102221.22;4161176;28;19925;-68
2024/03/07 06:02:20;;;;;;;;;;;;;;;5.38;nan;102227.69;4138056;28;20381;-69
2024/03/07 06:04:22;;;;;;;;;;;;;;;5.36;nan;102225.09;4161301;28;19929;-69
2024/03/07 06:06:24;;;;;;;;;;;;;;;5.35;nan;102223.38;4162931;28;20298;-69
2024/03/07 06:08:25;;;;;;;;;;;;;;;5.33;nan;102222.63;4162164;28;19929;-69
2024/03/07 06:10:29;;;;;;;;;;;;;;;5.33;nan;102228.00;4162608;28;19925;-69
2024/03/07 06:12:31;;;;;;;;;;;;;;;5.31;nan;102234.41;4159969;28;19933;-70
2024/03/07 06:14:32;;;;;;;;;;;;;;;5.30;nan;102227.31;4162019;28;19925;-70
2024/03/07 06:16:35;;;;;;;;;;;;;;;5.30;nan;102225.53;4162308;28;19932;-69
2024/03/07 06:18:37;;;;;;;;;;;;;;;5.28;nan;102232.78;4162422;28;19932;-69
2024/03/07 06:20:40;;;;;;;;;;;;;;;5.27;nan;102235.59;4143511;28;19925;-69
2024/03/07 06:22:43;;;;;;;;;;;;;;;5.23;nan;102233.13;4161883;28;19932;-69
2024/03/07 06:24:46;;;;;;;;;;;;;;;5.23;nan;102237.63;4162107;28;19931;-69
2024/03/07 06:26:59;;;;;;;;;;;;;;;5.22;nan;102238.59;4143089;28;20461;-69
2024/03/07 06:29:01;;;;;;;;;;;;;;;5.21;nan;102235.03;4160795;28;19940;-69
2024/03/07 06:31:07;;;;;;;;;;;;;;;5.20;nan;102228.00;4144032;28;20425;-69
2024/03/07 06:33:09;;;;;;;;;;;;;;;5.21;nan;102239.56;4161122;28;19926;-69
2024/03/07 06:35:10;;;;;;;;;;;;;;;5.20;nan;102230.66;4161206;28;19929;-69
2024/03/07 06:37:13;;;;;;;;;;;;;;;5.21;nan;102237.72;4161294;28;19937;-69
2024/03/07 06:39:15;;;;;;;;;;;;;;;5.21;nan;102236.88;4160173;28;20030;-69
2024/03/07 06:41:17;;;;;;;;;;;;;;;5.21;nan;102242.22;4160300;28;20421;-69
2024/03/07 06:43:21;;;;;;;;;;;;;;;5.21;nan;102236.88;4161639;28;19925;-69
2024/03/07 06:45:24;;;;;;;;;;;;;;;5.19;nan;102236.97;4161242;28;19926;-69
2024/03/07 06:47:26;;;;;;;;;;;;;;;5.21;nan;102239.56;4161006;28;19925;-69
2024/03/07 06:49:29;;;;;;;;;;;;;;;5.22;nan;102244.81;4161542;28;19940;-69
2024/03/07 06:51:32;;;;;;;;;;;;;;;5.24;nan;102244.69;4161866;28;19933;-69
2024/03/07 06:53:33;;;;;;;;;;;;;;;5.24;nan;102245.53;4152896;28;19981;-69
2024/03/07 06:55:35;;;;;;;;;;;;;;;5.22;nan;102242.13;4160455;28;19929;-69
2024/03/07 06:57:38;;;;;;;;;;;;;;;5.23;nan;102251.00;4143749;28;19972;-69
2024/03/07 06:59:42;;;;;;;;;;;;;;;5.23;nan;102246.53;4161089;28;20279;-69
2024/03/07 07:01:45;;;;;;;;;;;;;;;5.24;nan;102255.41;4161229;28;20374;-70
2024/03/07 07:03:47;;;;;;;;;;;;;;;5.24;nan;102256.25;4161578;28;19925;-70
2024/03/07 07:05:48;;;;;;;;;;;;;;;5.24;nan;102247.38;4144865;28;19948;-69
2024/03/07 07:07:50;;;;;;;;;;;;;;;5.24;nan;102250.91;4162402;28;19929;-69
2024/03/07 07:09:54;;;;;;;;;;;;;;;5.24;nan;102256.25;4161519;28;19933;-69
2024/03/07 07:18:43;;;;;;;;;;;;;;;5.32;nan;102268.28;4134070;28;19929;-69
2024/03/07 07:20:45;;;;;;;;;;;;;;;5.33;nan;102268.19;4137041;28;20326;-69
2024/03/07 07:22:47;;;;;;;;;;;;;;;5.36;nan;102259.94;4138284;28;19926;-69
2024/03/07 07:24:49;;;;;;;;;;;;;;;5.38;nan;102265.19;4139085;28;20065;-69
2024/03/07 07:26:52;;;;;;;;;;;;;;;5.39;nan;102264.19;4138213;28;19929;-70
2024/03/07 07:28:54;;;;;;;;;;;;;;;5.41;nan;102265.81;4138039;28;19930;-69
2024/03/07 07:30:57;;;;;;;;;;;;;;;5.42;nan;102261.31;4137718;28;20497;-69
2024/03/07 07:32:59;;;;;;;;;;;;;;;5.44;nan;102267.44;4138770;28;19932;-69
2024/03/07 07:35:01;;;;;;;;;;;;;;;5.46;nan;102259.31;4138844;28;19932;-69
2024/03/07 07:37:04;;;;;;;;;;;;;;;5.47;nan;102269.91;4138573;28;19983;-69
2024/03/07 07:39:06;;;;;;;;;;;;;;;5.50;nan;102263.47;4137161;28;19936;-69
2024/03/07 07:41:11;;;;;;;;;;;;;;;5.52;nan;102262.41;4137134;28;19926;-70
2024/03/07 07:43:14;;;;;;;;;;;;;;;5.55;nan;102258.66;4137498;28;19926;-69
2024/03/07 16:15:10;;;;;;;;;;;;;;;10.62;nan;102019.88;4158679;28;19933;-67
2024/03/07 16:17:14;;;;;;;;;;;;;;;10.61;nan;102012.78;4160304;28;20037;-67
2024/03/07 16:19:19;;;;;;;;;;;;;;;10.57;nan;102017.63;4159988;28;19940;-68
2024/03/07 20:05:25;;;;;;;;;;;;;;;7.80;nan;102050.16;4148941;28;19932;-70
2024/03/07 20:07:30;;;;;;;;;;;;;;;7.79;nan;102046.63;4154421;28;19937;-71
2024/03/07 20:09:34;;;;;;;;;;;;;;;7.76;nan;102055.78;4136965;28;20040;-70
2024/03/07 20:11:37;;;;;;;;;;;;;;;7.74;nan;102047.00;4155115;28;19936;-70
2024/03/07 20:13:40;;;;;;;;;;;;;;;7.73;nan;102049.81;4152839;28;20130;-70
2024/03/07 20:15:44;;;;;;;;;;;;;;;7.70;nan;102047.38;4155117;28;19995;-70
2024/03/07 20:17:48;;;;;;;;;;;;;;;7.66;nan;102046.75;4154727;28;19929;-70
2024/03/07 20:19:51;;;;;;;;;;;;;;;7.64;nan;102046.03;4152232;28;19938;-70
2024/03/07 20:21:55;;;;;;;;;;;;;;;7.62;nan;102050.69;4151966;28;19948;-69
2024/03/07 20:23:59;;;;;;;;;;;;;;;7.61;nan;102045.44;4140169;28;19929;-70
2024/03/07 20:26:03;;;;;;;;;;;;;;;7.58;nan;102041.16;4151748;28;19929;-70
2024/03/07 20:28:09;;;;;;;;;;;;;;;7.54;nan;102037.88;4151556;28;19932;-69
2024/03/07 20:30:11;;;;;;;;;;;;;;;7.51;nan;102042.66;4152043;28;20436;-70
2024/03/07 20:32:16;;;;;;;;;;;;;;;7.50;nan;102044.47;4151998;28;19926;-67
2024/03/07 20:34:18;;;;;;;;;;;;;;;7.47;nan;102039.34;4152872;28;19939;-69
2024/03/07 20:36:20;;;;;;;;;;;;;;;7.46;nan;102039.47;4151514;28;20400;-69
2024/03/07 20:38:27;;;;;;;;;;;;;;;7.42;nan;102033.50;4152921;28;20533;-69
2024/03/07 20:40:29;;;;;;;;;;;;;;;7.41;nan;102039.84;4152229;28;19926;-69
2024/03/07 20:42:35;;;;;;;;;;;;;;;7.39;nan;102039.97;4151590;28;19929;-70
2024/03/07 20:44:38;;;;;;;;;;;;;;;7.37;nan;102044.63;4151751;28;19936;-70
2024/03/07 20:46:40;;;;;;;;;;;;;;;7.34;nan;102041.34;4152662;28;19932;-70
2024/03/07 20:48:44;;;;;;;;;;;;;;;7.33;nan;102045.00;4153141;28;19936;-70
2024/03/07 20:50:46;;;;;;;;;;;;;;;7.30;nan;102038.03;4152295;28;19964;-70
2024/03/07 20:52:52;;;;;;;;;;;;;;;7.29;nan;102041.69;4148746;28;19936;-70
2024/03/07 20:54:58;;;;;;;;;;;;;;;7.26;nan;102039.25;4154049;28;19940;-70
2024/03/07 20:57:00;;;;;;;;;;;;;;;7.24;nan;102034.97;4156990;28;20860;-70
2024/03/07 20:59:06;;;;;;;;;;;;;;;7.22;nan;102040.47;4154273;28;19925;-70
2024/03/07 21:01:11;;;;;;;;;;;;;;;7.22;nan;102038.66;4154064;28;19933;-70
2024/03/07 21:03:14;;;;;;;;;;;;;;;7.21;nan;102039.63;4154382;28;19925;-70
2024/03/07 21:05:17;;;;;;;;;;;;;;;7.22;nan;102044.03;4153917;28;19932;-71
2024/03/07 21:07:18;;;;;;;;;;;;;;;7.20;nan;102037.91;4154620;28;19935;-71
2024/03/07 21:09:23;;;;;;;;;;;;;;;7.19;nan;102041.59;4156108;28;19925;-71
2024/03/07 21:11:27;;;;;;;;;;;;;;;7.18;nan;102039.88;4155536;28;19929;-71
2024/03/07 21:13:30;;;;;;;;;;;;;;;7.18;nan;102041.72;4154373;28;19939;-70
2024/03/07 21:15:32;;;;;;;;;;;;;;;7.14;nan;102041.09;4152514;28;19936;-71
2024/03/07 21:17:34;;;;;;;;;;;;;;;7.13;nan;102043.91;4155611;28;19936;-70
2024/03/07 21:19:36;;;;;;;;;;;;;;;7.11;nan;102045.84;4154783;28;19935;-71
2024/03/07 21:21:39;;;;;;;;;;;;;;;7.10;nan;102036.06;4154331;28;19953;-71
2024/03/07 21:23:42;;;;;;;;;;;;;;;7.07;nan;102039.88;4155236;28;19932;-71
2024/03/07 21:25:43;;;;;;;;;;;;;;;7.05;nan;102041.81;4155954;28;19925;-71
2024/03/07 21:27:48;;;;;;;;;;;;;;;7.02;nan;102050.13;4155529;28;19944;-71
2024/03/07 21:29:52;;;;;;;;;;;;;;;6.97;nan;102041.59;4138078;28;19932;-70
2024/03/07 21:31:54;;;;;;;;;;;;;;;6.95;nan;102039.00;4153828;28;19929;-70
2024/03/07 21:33:57;;;;;;;;;;;;;;;6.91;nan;102040.25;4155375;28;19925;-71
2024/03/07 21:36:01;;;;;;;;;;;;;;;6.90;nan;102037.69;4155666;28;19929;-70
2024/03/07 21:38:05;;;;;;;;;;;;;;;6.87;nan;102028.03;4155794;28;20390;-71
2024/03/07 21:40:09;;;;;;;;;;;;;;;6.84;nan;102031.81;4155830;28;19932;-70
2024/03/07 21:42:12;;;;;;;;;;;;;;;6.83;nan;102029.25;4153828;28;19925;-70
2024/03/07 21:44:15;;;;;;;;;;;;;;;6.82;nan;102022.19;4156627;28;19931;-71
2024/03/07 21:46:20;;;;;;;;;;;;;;;6.80;nan;102030.34;4154735;28;19926;-71
2024/03/07 21:48:24;;;;;;;;;;;;;;;6.78;nan;102026.06;4153250;28;19929;-72
2024/03/07 21:50:26;;;;;;;;;;;;;;;6.77;nan;102027.91;4152558;28;19940;-71
2024/03/07 21:52:29;;;;;;;;;;;;;;;6.75;nan;102023.63;4153393;28;19933;-72
2024/03/07 21:54:31;;;;;;;;;;;;;;;6.73;nan;102015.69;4153044;28;19929;-71
2024/03/07 21:56:34;;;;;;;;;;;;;;;6.71;nan;102019.47;4137749;28;19925;-72
2024/03/07 21:58:36;;;;;;;;;;;;;;;6.68;nan;102024.09;4153855;28;20438;-71
2024/03/07 22:00:40;;;;;;;;;;;;;;;6.65;nan;102018.13;4154114;28;19925;-72
2024/03/07 22:02:45;;;;;;;;;;;;;;;6.60;nan;102020.28;4136021;28;19930;-72
2024/03/07 22:04:54;;;;;;;;;;;;;;;6.57;nan;102023.25;4157330;28;19929;-71
2024/03/07 22:06:57;;;;;;;;;;;;;;;6.55;nan;102027.84;4155380;28;20371;-72
2024/03/07 22:08:59;;;;;;;;;;;;;;;6.52;nan;102018.22;4155052;28;19926;-72
2024/03/07 22:11:01;;;;;;;;;;;;;;;6.50;nan;102022.84;4154005;28;19933;-72
2024/03/07 22:13:04;;;;;;;;;;;;;;;6.47;nan;102021.28;4155026;28;19925;-72
2024/03/07 22:15:06;;;;;;;;;;;;;;;6.45;nan;102019.66;4155642;28;20326;-72
2024/03/07 22:17:11;;;;;;;;;;;;;;;6.41;nan;102027.13;4155472;28;19926;-72
2024/03/07 22:19:12;;;;;;;;;;;;;;;6.37;nan;102025.63;4155559;28;19936;-72
2024/03/07 22:21:15;;;;;;;;;;;;;;;6.34;nan;102019.66;4155179;28;19925;-72
2024/03/07 22:23:17;;;;;;;;;;;;;;;6.31;nan;102026.09;4155330;28;19936;-72
2024/03/07 22:25:20;;;;;;;;;;;;;;;6.28;nan;102019.13;4153910;28;20221;-72
2024/03/07 22:27:22;;;;;;;;;;;;;;;6.24;nan;102027.56;4155620;28;20390;-72
2024/03/07 22:29:24;;;;;;;;;;;;;;;6.18;nan;102020.81;4155822;28;19925;-72
2024/03/07 22:31:28;;;;;;;;;;;;;;;6.16;nan;102025.47;4154100;28;19932;-72
2024/03/07 22:33:32;;;;;;;;;;;;;;;6.11;nan;102028.50;4155396;28;20321;-72
2024/03/07 22:35:35;;;;;;;;;;;;;;;6.07;nan;102027.00;4155184;28;19980;-72
2024/03/07 22:37:36;;;;;;;;;;;;;;;6.04;nan;102019.19;4154987;28;19931;-72
2024/03/07 22:39:38;;;;;;;;;;;;;;;6.03;nan;102028.19;4154726;28;19930;-72
2024/03/07 22:41:41;;;;;;;;;;;;;;;6.01;nan;102023.94;4154330;28;19929;-72
2024/03/07 22:43:43;;;;;;;;;;;;;;;5.99;nan;102021.38;4154920;28;19925;-72
2024/03/07 22:45:45;;;;;;;;;;;;;;;5.95;nan;102015.31;4156099;28;19925;-72
2024/03/07 22:47:50;;;;;;;;;;;;;;;5.92;nan;102015.59;4137036;28;19972;-72
2024/03/07 22:49:53;;;;;;;;;;;;;;;5.89;nan;102010.44;4137522;28;19933;-72
2024/03/07 22:51:58;;;;;;;;;;;;;;;5.86;nan;102008.00;4155165;28;20318;-72
2024/03/07 22:54:00;;;;;;;;;;;;;;;5.84;nan;102011.75;4155265;28;19929;-72
2024/03/07 22:56:02;;;;;;;;;;;;;;;5.82;nan;102008.34;4156097;28;19935;-72
2024/03/07 22:58:09;;;;;;;;;;;;;;;5.77;nan;102006.00;4155610;28;19929;-72
2024/03/07 23:00:18;;;;;;;;;;;;;;;5.74;nan;102003.53;4154850;28;19929;-72
2024/03/07 23:02:20;;;;;;;;;;;;;;;5.70;nan;101996.69;4153723;28;19932;-71
2024/03/07 23:04:25;;;;;;;;;;;;;;;5.68;nan;101999.50;4154876;28;19947;-71
2024/03/07 23:06:31;;;;;;;;;;;;;;;5.64;nan;101997.16;4155021;28;19931;-72
2024/03/07 23:08:33;;;;;;;;;;;;;;;5.59;nan;102001.03;4154167;28;19926;-72
2024/03/07 23:10:37;;;;;;;;;;;;;;;5.55;nan;101994.19;4153800;28;19925;-72
2024/03/07 23:12:39;;;;;;;;;;;;;;;5.52;nan;101993.56;4153751;28;19929;-72
2024/03/07 23:14:41;;;;;;;;;;;;;;;5.48;nan;101987.56;4155007;28;19929;-71
2024/03/07 23:16:44;;;;;;;;;;;;;;;5.46;nan;101988.66;4154449;28;19925;-71
2024/03/07 23:18:47;;;;;;;;;;;;;;;5.44;nan;101991.44;4154958;28;19929;-72
2024/03/07 23:20:49;;;;;;;;;;;;;;;5.42;nan;101988.00;4153922;28;19936;-71